sensor_id;sensor_type;location;lat;lon;timestamp;temperature;humidity
758;DHT22;363;48.764;9.172;2023-04-16T00:01:27;9.50;99.90
758;DHT22;363;48.764;9.172;2023-04-16T00:03:53;9.30;99.90
758;DHT22;363;48.764;9.172;2023-04-16T00:06:19;9.50;99.90
758;DHT22;363;48.764;9.172;2023-04-16T00:08:44;9.30;99.90
758;DHT22;363;48.764;9.172;2023-04-16T00:11:10;9.30;99.90
758;DHT22;363;48.764;9.172;2023-04-16T00:13:36;9.40;99.90
758;DHT22;363;48.764;9.172;2023-04-16T00:16:02;9.20;99.90
758;DHT22;363;48.764;9.172;2023-04-16T00:18:27;9.20;99.90
758;DHT22;363;48.764;9.172;2023-04-16T00:20:53;9.10;99.90
758;DHT22;363;48.764;9.172;2023-04-16T00:23:19;9.10;99.90
758;DHT22;363;48.764;9.172;2023-04-16T00:25:45;9.20;99.90
758;DHT22;363;48.764;9.172;2023-04-16T00:28:11;9.20;99.90
758;DHT22;363;48.764;9.172;2023-04-16T00:30:36;9.30;99.90
758;DHT22;363;48.764;9.172;2023-04-16T00:33:02;9.10;99.90
758;DHT22;363;48.764;9.172;2023-04-16T00:35:29;9.20;99.90
758;DHT22;363;48.764;9.172;2023-04-16T00:37:55;9.10;99.90
758;DHT22;363;48.764;9.172;2023-04-16T00:40:20;8.80;99.90
758;DHT22;363;48.764;9.172;2023-04-16T00:42:46;9.10;99.90
758;DHT22;363;48.764;9.172;2023-04-16T00:45:12;9.20;99.90
758;DHT22;363;48.764;9.172;2023-04-16T00:47:37;9.40;99.90
758;DHT22;363;48.764;9.172;2023-04-16T00:50:03;9.30;99.90
758;DHT22;363;48.764;9.172;2023-04-16T00:52:30;9.30;99.90
758;DHT22;363;48.764;9.172;2023-04-16T00:54:57;8.60;99.90
758;DHT22;363;48.764;9.172;2023-04-16T00:57:23;9.20;99.90
758;DHT22;363;48.764;9.172;2023-04-16T00:59:49;9.40;99.90
758;DHT22;363;48.764;9.172;2023-04-16T01:02:16;9.30;99.90
758;DHT22;363;48.764;9.172;2023-04-16T01:04:42;9.00;99.90
758;DHT22;363;48.764;9.172;2023-04-16T01:07:07;9.00;99.90
758;DHT22;363;48.764;9.172;2023-04-16T01:09:33;9.10;99.90
758;DHT22;363;48.764;9.172;2023-04-16T01:11:59;9.10;99.90
758;DHT22;363;48.764;9.172;2023-04-16T01:14:24;9.20;99.90
758;DHT22;363;48.764;9.172;2023-04-16T01:16:50;9.20;99.90
758;DHT22;363;48.764;9.172;2023-04-16T01:19:15;9.30;99.90
758;DHT22;363;48.764;9.172;2023-04-16T01:21:41;9.30;99.90
758;DHT22;363;48.764;9.172;2023-04-16T01:24:07;9.00;99.90
758;DHT22;363;48.764;9.172;2023-04-16T01:26:32;8.70;99.90
758;DHT22;363;48.764;9.172;2023-04-16T01:28:58;9.20;99.90
758;DHT22;363;48.764;9.172;2023-04-16T01:31:24;9.40;99.90
758;DHT22;363;48.764;9.172;2023-04-16T01:33:50;9.50;99.90
758;DHT22;363;48.764;9.172;2023-04-16T01:36:16;9.30;99.90
758;DHT22;363;48.764;9.172;2023-04-16T01:38:41;9.40;99.90
758;DHT22;363;48.764;9.172;2023-04-16T01:41:07;9.20;99.90
758;DHT22;363;48.764;9.172;2023-04-16T01:43:33;9.40;99.90
758;DHT22;363;48.764;9.172;2023-04-16T01:48:36;9.60;99.90
758;DHT22;363;48.764;9.172;2023-04-16T01:51:01;9.30;99.90
758;DHT22;363;48.764;9.172;2023-04-16T01:53:29;9.30;99.90
758;DHT22;363;48.764;9.172;2023-04-16T01:55:54;9.30;99.90
758;DHT22;363;48.764;9.172;2023-04-16T01:58:20;9.60;99.90
758;DHT22;363;48.764;9.172;2023-04-16T02:00:46;9.50;99.90
758;DHT22;363;48.764;9.172;2023-04-16T02:03:11;9.40;99.90
758;DHT22;363;48.764;9.172;2023-04-16T02:05:37;9.40;99.90
758;DHT22;363;48.764;9.172;2023-04-16T02:08:02;9.20;99.90
758;DHT22;363;48.764;9.172;2023-04-16T02:10:28;9.50;99.90
758;DHT22;363;48.764;9.172;2023-04-16T02:12:54;9.20;99.90
758;DHT22;363;48.764;9.172;2023-04-16T02:15:19;9.30;99.90
758;DHT22;363;48.764;9.172;2023-04-16T02:17:45;9.30;99.90
758;DHT22;363;48.764;9.172;2023-04-16T02:20:12;9.40;99.90
758;DHT22;363;48.764;9.172;2023-04-16T02:22:38;9.40;99.90
758;DHT22;363;48.764;9.172;2023-04-16T02:25:04;9.20;99.90
758;DHT22;363;48.764;9.172;2023-04-16T02:27:30;9.40;99.90
758;DHT22;363;48.764;9.172;2023-04-16T02:29:55;9.30;99.90
758;DHT22;363;48.764;9.172;2023-04-16T02:32:21;9.30;99.90
758;DHT22;363;48.764;9.172;2023-04-16T02:34:47;9.30;99.90
758;DHT22;363;48.764;9.172;2023-04-16T02:37:12;9.20;99.90
758;DHT22;363;48.764;9.172;2023-04-16T02:39:39;9.20;99.90
758;DHT22;363;48.764;9.172;2023-04-16T02:42:05;9.40;99.90
758;DHT22;363;48.764;9.172;2023-04-16T02:44:31;9.30;99.90
758;DHT22;363;48.764;9.172;2023-04-16T02:46:56;9.40;99.90
758;DHT22;363;48.764;9.172;2023-04-16T02:49:22;9.40;99.90
758;DHT22;363;48.764;9.172;2023-04-16T02:51:47;9.20;99.90
758;DHT22;363;48.764;9.172;2023-04-16T02:54:13;9.20;99.90
758;DHT22;363;48.764;9.172;2023-04-16T02:56:39;9.20;99.90
758;DHT22;363;48.764;9.172;2023-04-16T02:59:04;9.10;99.90
758;DHT22;363;48.764;9.172;2023-04-16T03:01:30;9.30;99.90
758;DHT22;363;48.764;9.172;2023-04-16T03:03:56;9.20;99.90
758;DHT22;363;48.764;9.172;2023-04-16T03:06:21;9.40;99.90
758;DHT22;363;48.764;9.172;2023-04-16T03:08:47;9.10;99.90
758;DHT22;363;48.764;9.172;2023-04-16T03:11:12;9.60;99.90
758;DHT22;363;48.764;9.172;2023-04-16T03:13:38;9.10;99.90
758;DHT22;363;48.764;9.172;2023-04-16T03:16:04;9.30;99.90
758;DHT22;363;48.764;9.172;2023-04-16T03:18:29;9.30;99.90
758;DHT22;363;48.764;9.172;2023-04-16T03:20:55;8.60;99.90
758;DHT22;363;48.764;9.172;2023-04-16T03:23:21;9.00;99.90
758;DHT22;363;48.764;9.172;2023-04-16T03:25:46;9.40;99.90
758;DHT22;363;48.764;9.172;2023-04-16T03:28:12;9.30;99.90
758;DHT22;363;48.764;9.172;2023-04-16T03:30:39;9.40;99.90
758;DHT22;363;48.764;9.172;2023-04-16T03:33:04;9.20;99.90
758;DHT22;363;48.764;9.172;2023-04-16T03:35:30;9.10;99.90
758;DHT22;363;48.764;9.172;2023-04-16T03:37:55;9.30;99.90
758;DHT22;363;48.764;9.172;2023-04-16T03:40:21;9.50;99.90
758;DHT22;363;48.764;9.172;2023-04-16T03:42:47;9.20;99.90
758;DHT22;363;48.764;9.172;2023-04-16T03:45:12;9.50;99.90
758;DHT22;363;48.764;9.172;2023-04-16T03:47:39;9.10;99.90
758;DHT22;363;48.764;9.172;2023-04-16T03:50:05;9.30;99.90
758;DHT22;363;48.764;9.172;2023-04-16T03:52:31;9.40;99.90
758;DHT22;363;48.764;9.172;2023-04-16T03:54:56;9.20;99.90
758;DHT22;363;48.764;9.172;2023-04-16T03:57:23;8.90;99.90
758;DHT22;363;48.764;9.172;2023-04-16T03:59:49;9.20;99.90
758;DHT22;363;48.764;9.172;2023-04-16T04:02:14;9.40;99.90
758;DHT22;363;48.764;9.172;2023-04-16T04:04:40;9.10;99.90
758;DHT22;363;48.764;9.172;2023-04-16T04:07:05;8.50;99.90
758;DHT22;363;48.764;9.172;2023-04-16T04:09:31;9.20;99.90
758;DHT22;363;48.764;9.172;2023-04-16T04:11:58;9.10;99.90
758;DHT22;363;48.764;9.172;2023-04-16T04:14:23;9.20;99.90
758;DHT22;363;48.764;9.172;2023-04-16T04:16:49;9.10;99.90
758;DHT22;363;48.764;9.172;2023-04-16T04:19:15;8.90;99.90
758;DHT22;363;48.764;9.172;2023-04-16T04:21:40;9.10;99.90
758;DHT22;363;48.764;9.172;2023-04-16T04:24:06;9.30;99.90
758;DHT22;363;48.764;9.172;2023-04-16T04:26:31;9.00;99.90
758;DHT22;363;48.764;9.172;2023-04-16T04:28:57;8.60;99.90
758;DHT22;363;48.764;9.172;2023-04-16T04:31:23;9.20;99.90
758;DHT22;363;48.764;9.172;2023-04-16T04:33:48;8.90;99.90
758;DHT22;363;48.764;9.172;2023-04-16T04:36:14;9.00;99.90
758;DHT22;363;48.764;9.172;2023-04-16T04:38:39;8.90;99.90
758;DHT22;363;48.764;9.172;2023-04-16T04:41:05;9.00;99.90
758;DHT22;363;48.764;9.172;2023-04-16T04:43:31;9.00;99.90
758;DHT22;363;48.764;9.172;2023-04-16T04:45:56;9.30;99.90
758;DHT22;363;48.764;9.172;2023-04-16T04:48:22;9.10;99.90
758;DHT22;363;48.764;9.172;2023-04-16T04:50:51;8.70;99.90
758;DHT22;363;48.764;9.172;2023-04-16T04:53:16;9.50;99.90
758;DHT22;363;48.764;9.172;2023-04-16T04:55:42;9.30;99.90
758;DHT22;363;48.764;9.172;2023-04-16T04:58:07;9.10;99.90
758;DHT22;363;48.764;9.172;2023-04-16T05:00:34;9.20;99.90
758;DHT22;363;48.764;9.172;2023-04-16T05:03:09;9.10;99.90
758;DHT22;363;48.764;9.172;2023-04-16T05:05:36;9.40;99.90
758;DHT22;363;48.764;9.172;2023-04-16T05:08:01;9.40;99.90
758;DHT22;363;48.764;9.172;2023-04-16T05:10:27;9.20;99.90
758;DHT22;363;48.764;9.172;2023-04-16T05:12:52;9.20;99.90
758;DHT22;363;48.764;9.172;2023-04-16T05:15:18;9.20;99.90
758;DHT22;363;48.764;9.172;2023-04-16T05:17:44;9.30;99.90
758;DHT22;363;48.764;9.172;2023-04-16T05:20:10;9.30;99.90
758;DHT22;363;48.764;9.172;2023-04-16T05:22:36;9.30;99.90
758;DHT22;363;48.764;9.172;2023-04-16T05:25:01;8.70;99.90
758;DHT22;363;48.764;9.172;2023-04-16T05:27:27;9.10;99.90
758;DHT22;363;48.764;9.172;2023-04-16T05:29:53;9.00;99.90
758;DHT22;363;48.764;9.172;2023-04-16T05:32:18;8.60;99.90
758;DHT22;363;48.764;9.172;2023-04-16T05:34:44;8.70;99.90
758;DHT22;363;48.764;9.172;2023-04-16T05:37:10;8.80;99.90
758;DHT22;363;48.764;9.172;2023-04-16T05:39:35;8.60;99.90
758;DHT22;363;48.764;9.172;2023-04-16T05:42:01;8.80;99.90
758;DHT22;363;48.764;9.172;2023-04-16T05:44:26;9.00;99.90
758;DHT22;363;48.764;9.172;2023-04-16T05:46:52;8.80;99.90
758;DHT22;363;48.764;9.172;2023-04-16T05:49:18;9.00;99.90
758;DHT22;363;48.764;9.172;2023-04-16T05:51:44;8.80;99.90
758;DHT22;363;48.764;9.172;2023-04-16T05:54:10;9.10;99.90
758;DHT22;363;48.764;9.172;2023-04-16T05:56:35;9.00;99.90
758;DHT22;363;48.764;9.172;2023-04-16T05:59:01;9.00;99.90
758;DHT22;363;48.764;9.172;2023-04-16T06:01:26;8.90;99.90
758;DHT22;363;48.764;9.172;2023-04-16T06:03:52;8.90;99.90
758;DHT22;363;48.764;9.172;2023-04-16T06:06:18;9.10;99.90
758;DHT22;363;48.764;9.172;2023-04-16T06:08:43;9.00;99.90
758;DHT22;363;48.764;9.172;2023-04-16T06:11:09;9.00;99.90
758;DHT22;363;48.764;9.172;2023-04-16T06:13:35;8.60;99.90
758;DHT22;363;48.764;9.172;2023-04-16T06:16:01;8.80;99.90
758;DHT22;363;48.764;9.172;2023-04-16T06:18:26;9.10;99.90
758;DHT22;363;48.764;9.172;2023-04-16T06:20:52;9.00;99.90
758;DHT22;363;48.764;9.172;2023-04-16T06:23:18;9.00;99.90
758;DHT22;363;48.764;9.172;2023-04-16T06:25:43;9.10;99.90
758;DHT22;363;48.764;9.172;2023-04-16T06:28:09;9.00;99.90
758;DHT22;363;48.764;9.172;2023-04-16T06:30:34;9.10;99.90
758;DHT22;363;48.764;9.172;2023-04-16T06:33:00;9.00;99.90
758;DHT22;363;48.764;9.172;2023-04-16T06:35:26;9.00;99.90
758;DHT22;363;48.764;9.172;2023-04-16T06:37:51;9.00;99.90
758;DHT22;363;48.764;9.172;2023-04-16T06:40:17;8.90;99.90
758;DHT22;363;48.764;9.172;2023-04-16T06:42:42;8.40;99.90
758;DHT22;363;48.764;9.172;2023-04-16T06:45:08;9.00;99.90
758;DHT22;363;48.764;9.172;2023-04-16T06:47:34;9.20;99.90
758;DHT22;363;48.764;9.172;2023-04-16T06:50:00;8.80;99.90
758;DHT22;363;48.764;9.172;2023-04-16T06:52:25;9.50;99.90
758;DHT22;363;48.764;9.172;2023-04-16T06:54:51;9.00;99.90
758;DHT22;363;48.764;9.172;2023-04-16T06:57:17;9.30;99.90
758;DHT22;363;48.764;9.172;2023-04-16T06:59:42;9.70;99.90
758;DHT22;363;48.764;9.172;2023-04-16T07:02:09;9.30;99.90
758;DHT22;363;48.764;9.172;2023-04-16T07:04:35;9.20;99.90
758;DHT22;363;48.764;9.172;2023-04-16T07:07:00;9.50;99.90
758;DHT22;363;48.764;9.172;2023-04-16T07:09:26;9.50;99.90
758;DHT22;363;48.764;9.172;2023-04-16T07:11:52;9.40;99.90
758;DHT22;363;48.764;9.172;2023-04-16T07:14:18;9.50;99.90
758;DHT22;363;48.764;9.172;2023-04-16T07:16:43;9.80;99.90
758;DHT22;363;48.764;9.172;2023-04-16T07:19:09;9.70;99.90
758;DHT22;363;48.764;9.172;2023-04-16T07:21:35;9.20;99.90
758;DHT22;363;48.764;9.172;2023-04-16T07:24:01;9.40;99.90
758;DHT22;363;48.764;9.172;2023-04-16T07:26:27;9.60;99.90
758;DHT22;363;48.764;9.172;2023-04-16T07:28:53;9.60;99.90
758;DHT22;363;48.764;9.172;2023-04-16T07:31:18;9.50;99.90
758;DHT22;363;48.764;9.172;2023-04-16T07:33:44;9.70;99.90
758;DHT22;363;48.764;9.172;2023-04-16T07:36:09;9.70;99.90
758;DHT22;363;48.764;9.172;2023-04-16T07:38:35;10.20;99.90
758;DHT22;363;48.764;9.172;2023-04-16T07:41:01;9.70;99.90
758;DHT22;363;48.764;9.172;2023-04-16T07:43:27;10.00;99.90
758;DHT22;363;48.764;9.172;2023-04-16T07:45:53;9.60;99.90
758;DHT22;363;48.764;9.172;2023-04-16T07:48:20;9.90;99.90
758;DHT22;363;48.764;9.172;2023-04-16T07:50:46;9.80;99.90
758;DHT22;363;48.764;9.172;2023-04-16T07:53:11;9.80;99.90
758;DHT22;363;48.764;9.172;2023-04-16T07:55:37;9.90;99.90
758;DHT22;363;48.764;9.172;2023-04-16T07:58:02;9.90;99.90
758;DHT22;363;48.764;9.172;2023-04-16T08:00:28;9.80;99.90
758;DHT22;363;48.764;9.172;2023-04-16T08:02:54;10.10;99.90
758;DHT22;363;48.764;9.172;2023-04-16T08:05:19;9.90;99.90
758;DHT22;363;48.764;9.172;2023-04-16T08:07:45;10.20;99.90
758;DHT22;363;48.764;9.172;2023-04-16T08:10:11;10.20;99.90
758;DHT22;363;48.764;9.172;2023-04-16T08:12:37;10.20;99.90
758;DHT22;363;48.764;9.172;2023-04-16T08:15:03;9.90;99.90
758;DHT22;363;48.764;9.172;2023-04-16T08:17:29;9.80;99.90
758;DHT22;363;48.764;9.172;2023-04-16T08:19:55;10.10;99.90
758;DHT22;363;48.764;9.172;2023-04-16T08:22:20;10.00;99.90
758;DHT22;363;48.764;9.172;2023-04-16T08:24:46;10.30;99.90
758;DHT22;363;48.764;9.172;2023-04-16T08:27:12;10.10;99.90
758;DHT22;363;48.764;9.172;2023-04-16T08:29:38;10.10;99.90
758;DHT22;363;48.764;9.172;2023-04-16T08:32:03;10.20;99.90
758;DHT22;363;48.764;9.172;2023-04-16T08:34:30;10.00;99.90
758;DHT22;363;48.764;9.172;2023-04-16T08:36:55;9.90;99.90
758;DHT22;363;48.764;9.172;2023-04-16T08:39:21;10.20;99.90
758;DHT22;363;48.764;9.172;2023-04-16T08:41:47;10.10;99.90
758;DHT22;363;48.764;9.172;2023-04-16T08:44:24;10.00;99.90
758;DHT22;363;48.764;9.172;2023-04-16T08:46:52;10.30;99.90
758;DHT22;363;48.764;9.172;2023-04-16T08:49:25;9.80;99.90
758;DHT22;363;48.764;9.172;2023-04-16T08:51:55;10.00;99.90
758;DHT22;363;48.764;9.172;2023-04-16T08:56:50;10.10;99.90
758;DHT22;363;48.764;9.172;2023-04-16T08:59:16;10.40;99.90
758;DHT22;363;48.764;9.172;2023-04-16T09:01:42;10.10;99.90
758;DHT22;363;48.764;9.172;2023-04-16T09:04:08;10.40;99.90
758;DHT22;363;48.764;9.172;2023-04-16T09:06:35;10.50;99.90
758;DHT22;363;48.764;9.172;2023-04-16T09:09:03;10.40;99.90
758;DHT22;363;48.764;9.172;2023-04-16T09:11:29;10.40;99.90
758;DHT22;363;48.764;9.172;2023-04-16T09:13:56;10.30;99.90
758;DHT22;363;48.764;9.172;2023-04-16T09:16:22;10.40;99.90
758;DHT22;363;48.764;9.172;2023-04-16T09:18:50;10.80;99.90
758;DHT22;363;48.764;9.172;2023-04-16T09:21:16;10.00;99.90
758;DHT22;363;48.764;9.172;2023-04-16T09:23:42;10.40;99.90
758;DHT22;363;48.764;9.172;2023-04-16T09:26:08;10.50;99.90
758;DHT22;363;48.764;9.172;2023-04-16T09:28:42;10.70;99.90
758;DHT22;363;48.764;9.172;2023-04-16T09:31:09;10.80;99.90
758;DHT22;363;48.764;9.172;2023-04-16T09:33:35;10.70;99.90
758;DHT22;363;48.764;9.172;2023-04-16T09:36:01;10.70;99.90
758;DHT22;363;48.764;9.172;2023-04-16T09:38:45;10.90;99.90
758;DHT22;363;48.764;9.172;2023-04-16T09:41:11;10.90;99.90
758;DHT22;363;48.764;9.172;2023-04-16T09:43:38;11.00;99.90
758;DHT22;363;48.764;9.172;2023-04-16T09:46:03;10.70;99.90
758;DHT22;363;48.764;9.172;2023-04-16T09:48:30;10.90;99.90
758;DHT22;363;48.764;9.172;2023-04-16T09:51:00;10.90;99.90
758;DHT22;363;48.764;9.172;2023-04-16T09:53:30;11.00;99.90
758;DHT22;363;48.764;9.172;2023-04-16T09:56:04;11.30;99.90
758;DHT22;363;48.764;9.172;2023-04-16T09:58:30;11.30;99.90
758;DHT22;363;48.764;9.172;2023-04-16T10:01:00;10.80;99.90
758;DHT22;363;48.764;9.172;2023-04-16T10:03:33;10.90;99.90
758;DHT22;363;48.764;9.172;2023-04-16T10:06:16;11.20;99.90
758;DHT22;363;48.764;9.172;2023-04-16T10:08:50;11.10;99.90
758;DHT22;363;48.764;9.172;2023-04-16T10:11:17;11.10;99.90
758;DHT22;363;48.764;9.172;2023-04-16T10:13:43;11.00;99.90
758;DHT22;363;48.764;9.172;2023-04-16T10:16:09;10.90;99.90
758;DHT22;363;48.764;9.172;2023-04-16T10:18:37;10.50;99.90
758;DHT22;363;48.764;9.172;2023-04-16T10:21:04;11.20;99.90
758;DHT22;363;48.764;9.172;2023-04-16T10:23:30;10.70;99.90
758;DHT22;363;48.764;9.172;2023-04-16T10:25:58;10.90;99.90
758;DHT22;363;48.764;9.172;2023-04-16T10:28:24;10.90;99.90
758;DHT22;363;48.764;9.172;2023-04-16T10:30:51;10.80;99.90
758;DHT22;363;48.764;9.172;2023-04-16T10:33:21;11.00;99.90
758;DHT22;363;48.764;9.172;2023-04-16T10:35:48;10.70;99.90
758;DHT22;363;48.764;9.172;2023-04-16T10:38:25;11.00;99.90
758;DHT22;363;48.764;9.172;2023-04-16T10:41:20;10.90;99.90
758;DHT22;363;48.764;9.172;2023-04-16T10:43:48;11.10;99.90
758;DHT22;363;48.764;9.172;2023-04-16T10:46:24;11.00;99.90
758;DHT22;363;48.764;9.172;2023-04-16T10:48:54;11.20;99.90
758;DHT22;363;48.764;9.172;2023-04-16T10:51:32;11.00;99.90
758;DHT22;363;48.764;9.172;2023-04-16T10:54:25;10.90;99.90
758;DHT22;363;48.764;9.172;2023-04-16T10:56:51;11.40;99.90
758;DHT22;363;48.764;9.172;2023-04-16T10:59:19;11.20;99.90
758;DHT22;363;48.764;9.172;2023-04-16T11:01:47;11.10;99.90
758;DHT22;363;48.764;9.172;2023-04-16T11:12:13;11.50;99.90
758;DHT22;363;48.764;9.172;2023-04-16T11:14:40;11.10;99.90
758;DHT22;363;48.764;9.172;2023-04-16T11:17:06;11.10;99.90
758;DHT22;363;48.764;9.172;2023-04-16T11:19:32;11.10;99.90
758;DHT22;363;48.764;9.172;2023-04-16T11:22:00;11.10;99.90
758;DHT22;363;48.764;9.172;2023-04-16T11:24:29;11.20;99.90
758;DHT22;363;48.764;9.172;2023-04-16T11:26:55;11.40;99.90
758;DHT22;363;48.764;9.172;2023-04-16T11:29:21;11.30;99.90
758;DHT22;363;48.764;9.172;2023-04-16T11:31:54;11.20;99.90
758;DHT22;363;48.764;9.172;2023-04-16T11:34:20;11.20;99.90
758;DHT22;363;48.764;9.172;2023-04-16T11:36:47;11.30;99.90
758;DHT22;363;48.764;9.172;2023-04-16T11:39:13;11.20;99.90
758;DHT22;363;48.764;9.172;2023-04-16T11:41:48;11.10;99.90
758;DHT22;363;48.764;9.172;2023-04-16T11:44:25;11.20;99.90
758;DHT22;363;48.764;9.172;2023-04-16T11:46:53;10.80;99.90
758;DHT22;363;48.764;9.172;2023-04-16T11:49:31;11.10;99.90
758;DHT22;363;48.764;9.172;2023-04-16T11:51:57;11.20;99.90
758;DHT22;363;48.764;9.172;2023-04-16T11:54:24;11.40;99.90
758;DHT22;363;48.764;9.172;2023-04-16T11:56:51;11.20;99.90
758;DHT22;363;48.764;9.172;2023-04-16T11:59:22;11.20;99.90
758;DHT22;363;48.764;9.172;2023-04-16T12:01:48;11.40;99.90
758;DHT22;363;48.764;9.172;2023-04-16T12:04:15;11.50;99.90
758;DHT22;363;48.764;9.172;2023-04-16T12:07:03;11.60;99.90
758;DHT22;363;48.764;9.172;2023-04-16T12:09:30;11.30;99.90
758;DHT22;363;48.764;9.172;2023-04-16T12:11:55;11.40;99.90
758;DHT22;363;48.764;9.172;2023-04-16T12:14:22;11.20;99.90
758;DHT22;363;48.764;9.172;2023-04-16T12:16:47;11.00;99.90
758;DHT22;363;48.764;9.172;2023-04-16T12:19:13;11.20;99.90
758;DHT22;363;48.764;9.172;2023-04-16T12:21:47;11.40;99.90
758;DHT22;363;48.764;9.172;2023-04-16T12:24:17;11.30;99.90
758;DHT22;363;48.764;9.172;2023-04-16T12:26:52;11.10;99.90
758;DHT22;363;48.764;9.172;2023-04-16T12:29:26;11.20;99.90
758;DHT22;363;48.764;9.172;2023-04-16T12:31:52;11.10;99.90
758;DHT22;363;48.764;9.172;2023-04-16T12:34:19;11.30;99.90
758;DHT22;363;48.764;9.172;2023-04-16T12:36:46;11.10;99.90
758;DHT22;363;48.764;9.172;2023-04-16T12:39:13;11.10;99.90
758;DHT22;363;48.764;9.172;2023-04-16T12:41:41;11.00;99.90
758;DHT22;363;48.764;9.172;2023-04-16T12:44:09;10.90;99.90
758;DHT22;363;48.764;9.172;2023-04-16T12:46:40;11.10;99.90
758;DHT22;363;48.764;9.172;2023-04-16T12:49:06;11.10;99.90
758;DHT22;363;48.764;9.172;2023-04-16T12:51:33;11.30;99.90
758;DHT22;363;48.764;9.172;2023-04-16T12:54:00;11.50;99.90
758;DHT22;363;48.764;9.172;2023-04-16T12:56:25;11.20;99.90
758;DHT22;363;48.764;9.172;2023-04-16T12:58:52;10.90;99.90
758;DHT22;363;48.764;9.172;2023-04-16T13:01:18;10.90;99.90
758;DHT22;363;48.764;9.172;2023-04-16T13:03:44;11.10;99.90
758;DHT22;363;48.764;9.172;2023-04-16T13:06:10;11.10;99.90
758;DHT22;363;48.764;9.172;2023-04-16T13:08:36;11.20;99.90
758;DHT22;363;48.764;9.172;2023-04-16T13:11:02;11.10;99.90
758;DHT22;363;48.764;9.172;2023-04-16T13:13:28;11.30;99.90
758;DHT22;363;48.764;9.172;2023-04-16T13:15:53;11.20;99.90
758;DHT22;363;48.764;9.172;2023-04-16T13:18:19;11.10;99.90
758;DHT22;363;48.764;9.172;2023-04-16T13:20:45;11.30;99.90
758;DHT22;363;48.764;9.172;2023-04-16T13:23:11;10.90;99.90
758;DHT22;363;48.764;9.172;2023-04-16T13:25:37;11.30;99.90
758;DHT22;363;48.764;9.172;2023-04-16T13:28:03;11.10;99.90
758;DHT22;363;48.764;9.172;2023-04-16T13:30:29;11.30;99.90
758;DHT22;363;48.764;9.172;2023-04-16T13:32:55;11.10;99.90
758;DHT22;363;48.764;9.172;2023-04-16T13:35:21;11.20;99.90
758;DHT22;363;48.764;9.172;2023-04-16T13:37:47;11.10;99.90
758;DHT22;363;48.764;9.172;2023-04-16T13:40:12;11.50;99.90
758;DHT22;363;48.764;9.172;2023-04-16T13:42:38;10.90;99.90
758;DHT22;363;48.764;9.172;2023-04-16T13:45:04;11.10;99.90
758;DHT22;363;48.764;9.172;2023-04-16T13:47:30;11.00;99.90
758;DHT22;363;48.764;9.172;2023-04-16T13:49:55;10.90;99.90
758;DHT22;363;48.764;9.172;2023-04-16T13:52:21;11.20;99.90
758;DHT22;363;48.764;9.172;2023-04-16T13:54:47;11.10;99.90
758;DHT22;363;48.764;9.172;2023-04-16T13:57:12;11.00;99.90
758;DHT22;363;48.764;9.172;2023-04-16T13:59:38;10.70;99.90
758;DHT22;363;48.764;9.172;2023-04-16T14:02:04;10.90;99.90
758;DHT22;363;48.764;9.172;2023-04-16T14:04:30;10.80;99.90
758;DHT22;363;48.764;9.172;2023-04-16T14:06:56;10.70;99.90
758;DHT22;363;48.764;9.172;2023-04-16T14:09:21;10.90;99.90
758;DHT22;363;48.764;9.172;2023-04-16T14:11:47;10.90;99.90
758;DHT22;363;48.764;9.172;2023-04-16T14:14:13;10.70;99.90
758;DHT22;363;48.764;9.172;2023-04-16T14:16:39;11.00;99.90
758;DHT22;363;48.764;9.172;2023-04-16T14:19:04;10.70;99.90
758;DHT22;363;48.764;9.172;2023-04-16T14:21:30;10.80;99.90
758;DHT22;363;48.764;9.172;2023-04-16T14:23:56;10.80;99.90
758;DHT22;363;48.764;9.172;2023-04-16T14:26:21;10.80;99.90
758;DHT22;363;48.764;9.172;2023-04-16T14:28:47;11.00;99.90
758;DHT22;363;48.764;9.172;2023-04-16T14:31:13;10.70;99.90
758;DHT22;363;48.764;9.172;2023-04-16T14:33:38;11.00;99.90
758;DHT22;363;48.764;9.172;2023-04-16T14:36:04;11.00;99.90
758;DHT22;363;48.764;9.172;2023-04-16T14:38:30;11.00;99.90
758;DHT22;363;48.764;9.172;2023-04-16T14:40:56;11.20;99.90
758;DHT22;363;48.764;9.172;2023-04-16T14:43:22;11.10;99.90
758;DHT22;363;48.764;9.172;2023-04-16T14:45:47;10.80;99.90
758;DHT22;363;48.764;9.172;2023-04-16T14:48:13;10.90;99.90
758;DHT22;363;48.764;9.172;2023-04-16T14:50:39;10.70;99.90
758;DHT22;363;48.764;9.172;2023-04-16T14:53:08;10.90;99.90
758;DHT22;363;48.764;9.172;2023-04-16T14:55:35;11.10;99.90
758;DHT22;363;48.764;9.172;2023-04-16T14:58:01;11.00;99.90
758;DHT22;363;48.764;9.172;2023-04-16T15:00:26;11.00;99.90
758;DHT22;363;48.764;9.172;2023-04-16T15:02:53;11.10;99.90
758;DHT22;363;48.764;9.172;2023-04-16T15:05:19;11.20;99.90
758;DHT22;363;48.764;9.172;2023-04-16T15:07:45;11.20;99.90
758;DHT22;363;48.764;9.172;2023-04-16T15:10:11;10.90;99.90
758;DHT22;363;48.764;9.172;2023-04-16T15:12:37;10.70;99.90
758;DHT22;363;48.764;9.172;2023-04-16T15:15:05;10.90;99.90
758;DHT22;363;48.764;9.172;2023-04-16T15:17:31;10.70;99.90
758;DHT22;363;48.764;9.172;2023-04-16T15:19:57;10.90;99.90
758;DHT22;363;48.764;9.172;2023-04-16T15:22:22;10.80;99.90
758;DHT22;363;48.764;9.172;2023-04-16T15:24:48;10.80;99.90
758;DHT22;363;48.764;9.172;2023-04-16T15:27:15;11.00;99.90
758;DHT22;363;48.764;9.172;2023-04-16T15:29:42;10.80;99.90
758;DHT22;363;48.764;9.172;2023-04-16T15:32:09;10.80;99.90
758;DHT22;363;48.764;9.172;2023-04-16T15:34:35;10.90;99.90
758;DHT22;363;48.764;9.172;2023-04-16T15:37:01;10.50;99.90
758;DHT22;363;48.764;9.172;2023-04-16T15:39:26;10.80;99.90
758;DHT22;363;48.764;9.172;2023-04-16T15:41:52;10.90;99.90
758;DHT22;363;48.764;9.172;2023-04-16T15:44:18;11.00;99.90
758;DHT22;363;48.764;9.172;2023-04-16T15:46:43;10.70;99.90
758;DHT22;363;48.764;9.172;2023-04-16T15:49:09;10.80;99.90
758;DHT22;363;48.764;9.172;2023-04-16T15:51:35;10.80;99.90
758;DHT22;363;48.764;9.172;2023-04-16T15:54:00;10.60;99.90
758;DHT22;363;48.764;9.172;2023-04-16T15:56:26;10.70;99.90
758;DHT22;363;48.764;9.172;2023-04-16T15:58:52;10.90;99.90
758;DHT22;363;48.764;9.172;2023-04-16T16:01:17;10.70;99.90
758;DHT22;363;48.764;9.172;2023-04-16T16:03:43;10.70;99.90
758;DHT22;363;48.764;9.172;2023-04-16T16:06:10;10.90;99.90
758;DHT22;363;48.764;9.172;2023-04-16T16:08:35;10.90;99.90
758;DHT22;363;48.764;9.172;2023-04-16T16:11:03;10.70;99.90
758;DHT22;363;48.764;9.172;2023-04-16T16:13:29;10.90;99.90
758;DHT22;363;48.764;9.172;2023-04-16T16:15:54;10.90;99.90
758;DHT22;363;48.764;9.172;2023-04-16T16:18:20;10.90;99.90
758;DHT22;363;48.764;9.172;2023-04-16T16:20:49;10.80;99.90
758;DHT22;363;48.764;9.172;2023-04-16T16:23:16;11.00;99.90
758;DHT22;363;48.764;9.172;2023-04-16T16:25:41;10.90;99.90
758;DHT22;363;48.764;9.172;2023-04-16T16:28:07;10.80;99.90
758;DHT22;363;48.764;9.172;2023-04-16T16:30:33;10.70;99.90
758;DHT22;363;48.764;9.172;2023-04-16T16:32:58;10.70;99.90
758;DHT22;363;48.764;9.172;2023-04-16T16:35:24;10.80;99.90
758;DHT22;363;48.764;9.172;2023-04-16T16:37:50;10.60;99.90
758;DHT22;363;48.764;9.172;2023-04-16T16:40:22;10.60;99.90
758;DHT22;363;48.764;9.172;2023-04-16T16:42:47;10.40;99.90
758;DHT22;363;48.764;9.172;2023-04-16T16:45:13;10.60;99.90
758;DHT22;363;48.764;9.172;2023-04-16T16:47:38;10.60;99.90
758;DHT22;363;48.764;9.172;2023-04-16T16:50:05;10.60;99.90